Gulfport Biloxi International Airport Gulfport US
ICAO: KGPT
IATA: GPT
Category: Large
Scheduled Services: Yes

Elevation: 28 ft
TransAlt. 18000 ft.

Airport Communications:
APP/DEP:124.6
ATIS:119.45
CTAF:123.7
GND:120.4
ANG OPS:37.78
GREENWOOD RDO:109
TWR:123.7
UNICOM:122.95

KGPT Zoom In..

If you have problems with the map follow the link
https://www.worldairports.se/pages/airport.php?
ICAO=KGPT

Runways:

(A) RW 14 length 9002 ft width 150 ft
ILS 110.90 / hdg 133

(B) RW 18 length 4935 ft width 150 ft
---- / hdg 178

(C) RW 32 length 9002 ft width 150 ft
ILS 108.30 / hdg 313

(D) RW 36 length 4935 ft width 150 ft
---- / hdg 358

Location; KGPT
Day. 13 / Time. 19.53 Zulu
* Altimeter: 29.84
* Temperature: 13° c. 55.4°f.
* Wind from: 330° Speed 08 kn.
Dewpoint: 12° c.
Visibility: 1 m.
Clouds: Overcast 400 ft.
Conditions: Mist.

KGPT 131953Z 33008KT 1 3/4SM +RA BR OVC004 13/12 A2984 RMK AO2 RAB23 SLP104 P0005 T01280117


Wind From 330°
Speed 08 kn.

 
 
jpsmedia worldairports.se 2019   terms of use